sensor_id;sensor_type;location;lat;lon;timestamp;pressure;altitude;pressure_sealevel;temperature;humidity
46782;BME280;32541;46.298;11.506;2023-04-21T00:01:11;89232.09;;;4.86;100.00
46782;BME280;32541;46.298;11.506;2023-04-21T00:03:37;89232.69;;;4.77;100.00
46782;BME280;32541;46.298;11.506;2023-04-21T00:06:04;89241.22;;;4.73;100.00
46782;BME280;32541;46.298;11.506;2023-04-21T00:08:34;89238.50;;;4.81;100.00
46782;BME280;32541;46.298;11.506;2023-04-21T00:11:07;89229.22;;;4.84;100.00
46782;BME280;32541;46.298;11.506;2023-04-21T00:13:34;89233.69;;;4.96;100.00
46782;BME280;32541;46.298;11.506;2023-04-21T00:16:00;89232.09;;;4.86;100.00
46782;BME280;32541;46.298;11.506;2023-04-21T00:18:26;89219.22;;;4.79;100.00
46782;BME280;32541;46.298;11.506;2023-04-21T00:20:52;89226.50;;;4.76;100.00
46782;BME280;32541;46.298;11.506;2023-04-21T00:23:17;89226.72;;;4.71;100.00
46782;BME280;32541;46.298;11.506;2023-04-21T00:25:42;89235.94;;;4.75;100.00
46782;BME280;32541;46.298;11.506;2023-04-21T00:28:08;89223.94;;;4.78;100.00
46782;BME280;32541;46.298;11.506;2023-04-21T00:30:33;89223.25;;;4.78;100.00
46782;BME280;32541;46.298;11.506;2023-04-21T00:32:58;89225.94;;;4.85;100.00
46782;BME280;32541;46.298;11.506;2023-04-21T00:35:24;89230.31;;;4.81;100.00
46782;BME280;32541;46.298;11.506;2023-04-21T00:37:50;89225.75;;;4.83;100.00
46782;BME280;32541;46.298;11.506;2023-04-21T00:40:15;89225.78;;;4.76;100.00
46782;BME280;32541;46.298;11.506;2023-04-21T00:42:40;89221.97;;;4.79;100.00
46782;BME280;32541;46.298;11.506;2023-04-21T00:45:06;89220.47;;;4.85;100.00
46782;BME280;32541;46.298;11.506;2023-04-21T00:47:31;89214.16;;;4.75;100.00
46782;BME280;32541;46.298;11.506;2023-04-21T00:49:57;89218.31;;;4.84;100.00
46782;BME280;32541;46.298;11.506;2023-04-21T00:52:23;89221.03;;;4.84;100.00
46782;BME280;32541;46.298;11.506;2023-04-21T00:54:49;89222.09;;;4.88;100.00
46782;BME280;32541;46.298;11.506;2023-04-21T00:57:15;89228.13;;;4.87;100.00
46782;BME280;32541;46.298;11.506;2023-04-21T00:59:40;89226.22;;;4.97;100.00
46782;BME280;32541;46.298;11.506;2023-04-21T01:02:06;89227.72;;;4.90;100.00
46782;BME280;32541;46.298;11.506;2023-04-21T01:04:31;89226.66;;;4.86;100.00
46782;BME280;32541;46.298;11.506;2023-04-21T01:07:03;89225.03;;;4.83;100.00
46782;BME280;32541;46.298;11.506;2023-04-21T01:09:28;89232.09;;;4.86;100.00
46782;BME280;32541;46.298;11.506;2023-04-21T01:12:08;89229.53;;;4.88;100.00
46782;BME280;32541;46.298;11.506;2023-04-21T01:14:37;89228.44;;;4.91;100.00
46782;BME280;32541;46.298;11.506;2023-04-21T01:17:03;89230.28;;;4.88;100.00
46782;BME280;32541;46.298;11.506;2023-04-21T01:19:37;89226.81;;;4.88;100.00
46782;BME280;32541;46.298;11.506;2023-04-21T01:22:06;89220.28;;;4.91;100.00
46782;BME280;32541;46.298;11.506;2023-04-21T01:27:25;89213.56;;;4.84;100.00
46782;BME280;32541;46.298;11.506;2023-04-21T01:29:51;89205.41;;;4.84;100.00
46782;BME280;32541;46.298;11.506;2023-04-21T01:32:26;89199.59;;;4.88;100.00
46782;BME280;32541;46.298;11.506;2023-04-21T01:34:53;89197.72;;;4.98;100.00
46782;BME280;32541;46.298;11.506;2023-04-21T01:37:21;89198.16;;;4.87;100.00
46782;BME280;32541;46.298;11.506;2023-04-21T01:39:50;89203.59;;;4.39;100.00
46782;BME280;32541;46.298;11.506;2023-04-21T01:42:17;89190.91;;;4.34;100.00
46782;BME280;32541;46.298;11.506;2023-04-21T01:44:42;89193.66;;;4.27;100.00
46782;BME280;32541;46.298;11.506;2023-04-21T01:47:08;89188.09;;;4.02;100.00
46782;BME280;32541;46.298;11.506;2023-04-21T01:49:33;89181.88;;;4.24;100.00
46782;BME280;32541;46.298;11.506;2023-04-21T01:51:59;89187.66;;;4.28;100.00
46782;BME280;32541;46.298;11.506;2023-04-21T01:54:24;89185.47;;;4.34;100.00
46782;BME280;32541;46.298;11.506;2023-04-21T01:56:50;89183.31;;;4.33;100.00
46782;BME280;32541;46.298;11.506;2023-04-21T01:59:15;89190.06;;;4.24;100.00
46782;BME280;32541;46.298;11.506;2023-04-21T02:01:41;89193.63;;;4.34;100.00
46782;BME280;32541;46.298;11.506;2023-04-21T02:04:07;89185.47;;;4.34;100.00
46782;BME280;32541;46.298;11.506;2023-04-21T02:06:32;89198.88;;;4.40;100.00
46782;BME280;32541;46.298;11.506;2023-04-21T02:08:57;89198.84;;;4.47;100.00
46782;BME280;32541;46.298;11.506;2023-04-21T02:11:24;89197.56;;;4.56;100.00
46782;BME280;32541;46.298;11.506;2023-04-21T02:13:51;89202.84;;;4.54;100.00
46782;BME280;32541;46.298;11.506;2023-04-21T02:16:16;89208.97;;;4.55;100.00
46782;BME280;32541;46.298;11.506;2023-04-21T02:18:44;89206.19;;;4.70;100.00
46782;BME280;32541;46.298;11.506;2023-04-21T02:21:09;89201.34;;;4.61;100.00
46782;BME280;32541;46.298;11.506;2023-04-21T02:23:35;89203.53;;;4.55;100.00
46782;BME280;32541;46.298;11.506;2023-04-21T02:26:00;89194.72;;;4.79;100.00
46782;BME280;32541;46.298;11.506;2023-04-21T02:28:25;89200.16;;;4.79;100.00
46782;BME280;32541;46.298;11.506;2023-04-21T02:30:51;89200.91;;;4.79;100.00
46782;BME280;32541;46.298;11.506;2023-04-21T02:33:16;89209.91;;;4.57;100.00
46782;BME280;32541;46.298;11.506;2023-04-21T02:35:42;89198.13;;;4.39;100.00
46782;BME280;32541;46.298;11.506;2023-04-21T02:38:07;89199.44;;;4.38;100.00
46782;BME280;32541;46.298;11.506;2023-04-21T02:40:33;89213.25;;;4.33;100.00
46782;BME280;32541;46.298;11.506;2023-04-21T02:42:58;89204.72;;;4.36;100.00
46782;BME280;32541;46.298;11.506;2023-04-21T02:45:24;89209.25;;;4.26;100.00
46782;BME280;32541;46.298;11.506;2023-04-21T02:47:49;89213.63;;;4.22;100.00
46782;BME280;32541;46.298;11.506;2023-04-21T02:50:15;89205.81;;;4.33;100.00
46782;BME280;32541;46.298;11.506;2023-04-21T02:52:40;89213.56;;;4.37;100.00
46782;BME280;32541;46.298;11.506;2023-04-21T02:55:06;89213.38;;;4.42;100.00
46782;BME280;32541;46.298;11.506;2023-04-21T02:57:31;89211.25;;;4.26;100.00
46782;BME280;32541;46.298;11.506;2023-04-21T02:59:57;89206.53;;;4.26;100.00
46782;BME280;32541;46.298;11.506;2023-04-21T03:02:22;89204.72;;;4.36;100.00
46782;BME280;32541;46.298;11.506;2023-04-21T03:04:47;89201.38;;;4.45;100.00
46782;BME280;32541;46.298;11.506;2023-04-21T03:07:13;89212.03;;;4.04;100.00
46782;BME280;32541;46.298;11.506;2023-04-21T03:09:39;89204.28;;;3.85;100.00
46782;BME280;32541;46.298;11.506;2023-04-21T03:12:04;89204.47;;;3.72;100.00
46782;BME280;32541;46.298;11.506;2023-04-21T03:14:30;89200.09;;;3.69;100.00
46782;BME280;32541;46.298;11.506;2023-04-21T03:16:55;89192.88;;;3.64;100.00
46782;BME280;32541;46.298;11.506;2023-04-21T03:19:20;89194.13;;;3.78;100.00
46782;BME280;32541;46.298;11.506;2023-04-21T03:21:46;89195.34;;;3.92;100.00
46782;BME280;32541;46.298;11.506;2023-04-21T03:24:11;89198.97;;;4.02;100.00
46782;BME280;32541;46.298;11.506;2023-04-21T03:26:40;89189.03;;;3.97;100.00
46782;BME280;32541;46.298;11.506;2023-04-21T03:29:05;89192.97;;;4.11;100.00
46782;BME280;32541;46.298;11.506;2023-04-21T03:31:31;89202.63;;;3.89;100.00
46782;BME280;32541;46.298;11.506;2023-04-21T03:33:56;89196.84;;;3.78;100.00
46782;BME280;32541;46.298;11.506;2023-04-21T03:36:22;89201.56;;;3.85;100.00
46782;BME280;32541;46.298;11.506;2023-04-21T03:38:47;89189.91;;;3.92;100.00
46782;BME280;32541;46.298;11.506;2023-04-21T03:41:12;89204.28;;;3.70;100.00
46782;BME280;32541;46.298;11.506;2023-04-21T03:43:38;89209.34;;;3.88;100.00
46782;BME280;32541;46.298;11.506;2023-04-21T03:46:03;89195.56;;;3.86;100.00
46782;BME280;32541;46.298;11.506;2023-04-21T03:48:29;89198.09;;;3.84;100.00
46782;BME280;32541;46.298;11.506;2023-04-21T03:50:55;89196.13;;;3.85;100.00
46782;BME280;32541;46.298;11.506;2023-04-21T03:53:21;89201.91;;;3.89;100.00
46782;BME280;32541;46.298;11.506;2023-04-21T03:55:49;89209.19;;;3.79;100.00
46782;BME280;32541;46.298;11.506;2023-04-21T03:58:15;89209.88;;;3.87;100.00
46782;BME280;32541;46.298;11.506;2023-04-21T04:00:41;89208.44;;;3.86;100.00
46782;BME280;32541;46.298;11.506;2023-04-21T04:03:06;89205.91;;;3.88;100.00
46782;BME280;32541;46.298;11.506;2023-04-21T04:05:32;89209.88;;;3.87;100.00
46782;BME280;32541;46.298;11.506;2023-04-21T04:07:57;89207.00;;;3.85;100.00
46782;BME280;32541;46.298;11.506;2023-04-21T04:10:23;89206.09;;;3.75;100.00
46782;BME280;32541;46.298;11.506;2023-04-21T04:12:48;89211.91;;;3.64;100.00
46782;BME280;32541;46.298;11.506;2023-04-21T04:15:13;89220.78;;;3.57;100.00
46782;BME280;32541;46.298;11.506;2023-04-21T04:17:39;89204.84;;;3.46;100.00
46782;BME280;32541;46.298;11.506;2023-04-21T04:20:06;89204.09;;;3.45;100.00
46782;BME280;32541;46.298;11.506;2023-04-21T04:22:32;89212.81;;;3.51;100.00
46782;BME280;32541;46.298;11.506;2023-04-21T04:24:58;89203.38;;;3.60;100.00
46782;BME280;32541;46.298;11.506;2023-04-21T04:27:25;89210.97;;;3.69;100.00
46782;BME280;32541;46.298;11.506;2023-04-21T04:29:54;89216.78;;;3.73;100.00
46782;BME280;32541;46.298;11.506;2023-04-21T04:32:19;89216.97;;;3.75;100.00
46782;BME280;32541;46.298;11.506;2023-04-21T04:34:45;89220.94;;;3.89;100.00
46782;BME280;32541;46.298;11.506;2023-04-21T04:37:11;89220.75;;;3.87;100.00
46782;BME280;32541;46.298;11.506;2023-04-21T04:39:37;89221.84;;;3.84;100.00
46782;BME280;32541;46.298;11.506;2023-04-21T04:42:06;89216.97;;;3.52;100.00
46782;BME280;32541;46.298;11.506;2023-04-21T04:44:33;89220.97;;;3.51;100.00
46782;BME280;32541;46.298;11.506;2023-04-21T04:46:59;89224.38;;;3.74;100.00
46782;BME280;32541;46.298;11.506;2023-04-21T04:49:24;89228.41;;;3.73;100.00
46782;BME280;32541;46.298;11.506;2023-04-21T04:51:50;89234.19;;;3.77;100.00
46782;BME280;32541;46.298;11.506;2023-04-21T04:54:15;89231.09;;;3.81;100.00
46782;BME280;32541;46.298;11.506;2023-04-21T04:56:41;89235.97;;;4.05;100.00
46782;BME280;32541;46.298;11.506;2023-04-21T04:59:06;89234.34;;;4.02;100.00
46782;BME280;32541;46.298;11.506;2023-04-21T05:01:32;89229.13;;;3.74;100.00
46782;BME280;32541;46.298;11.506;2023-04-21T05:03:57;89234.75;;;3.76;100.00
46782;BME280;32541;46.298;11.506;2023-04-21T05:06:23;89235.63;;;3.78;100.00
46782;BME280;32541;46.298;11.506;2023-04-21T05:08:49;89233.47;;;3.84;100.00
46782;BME280;32541;46.298;11.506;2023-04-21T05:11:14;89233.47;;;3.77;100.00
46782;BME280;32541;46.298;11.506;2023-04-21T05:13:39;89241.25;;;3.73;100.00
46782;BME280;32541;46.298;11.506;2023-04-21T05:16:05;89234.56;;;3.74;100.00
46782;BME280;32541;46.298;11.506;2023-04-21T05:18:31;89231.47;;;3.77;100.00
46782;BME280;32541;46.298;11.506;2023-04-21T05:20:56;89240.72;;;3.82;100.00
46782;BME280;32541;46.298;11.506;2023-04-21T05:23:21;89233.81;;;3.81;100.00
46782;BME280;32541;46.298;11.506;2023-04-21T05:25:47;89237.06;;;4.02;100.00
46782;BME280;32541;46.298;11.506;2023-04-21T05:28:13;89237.25;;;3.89;100.00
46782;BME280;32541;46.298;11.506;2023-04-21T05:30:39;89239.97;;;3.81;100.00
46782;BME280;32541;46.298;11.506;2023-04-21T05:33:05;89239.41;;;3.98;100.00
46782;BME280;32541;46.298;11.506;2023-04-21T05:35:30;89236.69;;;4.06;100.00
46782;BME280;32541;46.298;11.506;2023-04-21T05:37:55;89231.06;;;4.11;100.00
46782;BME280;32541;46.298;11.506;2023-04-21T05:40:21;89234.66;;;4.36;100.00
46782;BME280;32541;46.298;11.506;2023-04-21T05:42:46;89236.66;;;4.28;100.00
46782;BME280;32541;46.298;11.506;2023-04-21T05:45:12;89231.72;;;4.34;100.00
46782;BME280;32541;46.298;11.506;2023-04-21T05:47:37;89232.25;;;4.48;100.00
46782;BME280;32541;46.298;11.506;2023-04-21T05:50:04;89240.06;;;4.44;100.00
46782;BME280;32541;46.298;11.506;2023-04-21T05:52:30;89240.44;;;4.40;100.00
46782;BME280;32541;46.298;11.506;2023-04-21T05:54:57;89244.94;;;4.45;100.00
46782;BME280;32541;46.298;11.506;2023-04-21T05:57:23;89244.56;;;4.57;100.00
46782;BME280;32541;46.298;11.506;2023-04-21T05:59:49;89249.28;;;4.56;100.00
46782;BME280;32541;46.298;11.506;2023-04-21T06:02:14;89253.59;;;4.67;100.00
46782;BME280;32541;46.298;11.506;2023-04-21T06:04:39;89241.97;;;4.74;100.00
46782;BME280;32541;46.298;11.506;2023-04-21T06:07:09;89247.41;;;4.74;100.00
46782;BME280;32541;46.298;11.506;2023-04-21T06:09:37;89250.41;;;4.93;100.00
46782;BME280;32541;46.298;11.506;2023-04-21T06:12:02;89246.56;;;5.03;100.00
46782;BME280;32541;46.298;11.506;2023-04-21T06:14:28;89249.50;;;4.98;100.00
46782;BME280;32541;46.298;11.506;2023-04-21T06:16:53;89245.63;;;4.69;100.00
46782;BME280;32541;46.298;11.506;2023-04-21T06:19:18;89249.13;;;4.54;100.00
46782;BME280;32541;46.298;11.506;2023-04-21T06:21:44;89246.44;;;4.31;100.00
46782;BME280;32541;46.298;11.506;2023-04-21T06:24:10;89254.06;;;4.25;100.00
46782;BME280;32541;46.298;11.506;2023-04-21T06:26:35;89257.09;;;4.52;100.00
46782;BME280;32541;46.298;11.506;2023-04-21T06:29:00;89253.06;;;4.61;100.00
46782;BME280;32541;46.298;11.506;2023-04-21T06:31:26;89265.00;;;4.73;100.00
46782;BME280;32541;46.298;11.506;2023-04-21T06:33:52;89264.50;;;4.67;100.00
46782;BME280;32541;46.298;11.506;2023-04-21T06:36:17;89260.13;;;4.64;100.00
46782;BME280;32541;46.298;11.506;2023-04-21T06:38:42;89267.72;;;4.73;100.00
46782;BME280;32541;46.298;11.506;2023-04-21T06:41:08;89269.91;;;4.74;100.00
46782;BME280;32541;46.298;11.506;2023-04-21T06:43:34;89271.19;;;4.73;100.00
46782;BME280;32541;46.298;11.506;2023-04-21T06:45:59;89265.22;;;4.75;100.00
46782;BME280;32541;46.298;11.506;2023-04-21T06:48:25;89267.00;;;4.80;100.00
46782;BME280;32541;46.298;11.506;2023-04-21T06:50:50;89266.78;;;4.85;100.00
46782;BME280;32541;46.298;11.506;2023-04-21T06:53:16;89269.47;;;4.93;100.00
46782;BME280;32541;46.298;11.506;2023-04-21T06:55:45;89274.16;;;5.00;100.00
46782;BME280;32541;46.298;11.506;2023-04-21T06:58:11;89272.34;;;5.02;100.00
46782;BME280;32541;46.298;11.506;2023-04-21T07:00:36;89282.00;;;4.96;100.00
46782;BME280;32541;46.298;11.506;2023-04-21T07:03:02;89281.28;;;4.95;100.00
46782;BME280;32541;46.298;11.506;2023-04-21T07:05:27;89282.88;;;5.06;100.00
46782;BME280;32541;46.298;11.506;2023-04-21T07:07:53;89281.66;;;4.92;100.00
46782;BME280;32541;46.298;11.506;2023-04-21T07:10:23;89296.78;;;4.78;100.00
46782;BME280;32541;46.298;11.506;2023-04-21T07:12:48;89287.72;;;4.68;100.00
46782;BME280;32541;46.298;11.506;2023-04-21T07:15:14;89285.22;;;4.55;100.00
46782;BME280;32541;46.298;11.506;2023-04-21T07:17:39;89284.84;;;4.58;100.00
46782;BME280;32541;46.298;11.506;2023-04-21T07:20:05;89297.34;;;4.69;100.00
46782;BME280;32541;46.298;11.506;2023-04-21T07:22:31;89282.97;;;4.76;100.00
46782;BME280;32541;46.298;11.506;2023-04-21T07:24:58;89286.75;;;4.88;100.00
46782;BME280;32541;46.298;11.506;2023-04-21T07:27:24;89290.88;;;5.04;100.00
46782;BME280;32541;46.298;11.506;2023-04-21T07:29:49;89293.78;;;5.06;100.00
46782;BME280;32541;46.298;11.506;2023-04-21T07:32:14;89292.94;;;5.28;100.00
46782;BME280;32541;46.298;11.506;2023-04-21T07:34:40;89295.75;;;5.05;100.00
46782;BME280;32541;46.298;11.506;2023-04-21T07:37:05;89294.75;;;4.86;100.00
46782;BME280;32541;46.298;11.506;2023-04-21T07:39:31;89296.72;;;4.93;100.00
46782;BME280;32541;46.298;11.506;2023-04-21T07:41:56;89288.63;;;5.18;100.00
46782;BME280;32541;46.298;11.506;2023-04-21T07:44:21;89294.75;;;5.26;100.00
46782;BME280;32541;46.298;11.506;2023-04-21T07:46:47;89301.34;;;5.15;100.00
46782;BME280;32541;46.298;11.506;2023-04-21T07:49:12;89303.22;;;5.05;100.00
46782;BME280;32541;46.298;11.506;2023-04-21T07:51:37;89303.63;;;4.94;100.00
46782;BME280;32541;46.298;11.506;2023-04-21T07:54:04;89309.31;;;4.81;100.00
46782;BME280;32541;46.298;11.506;2023-04-21T07:56:29;89313.84;;;4.78;100.00
46782;BME280;32541;46.298;11.506;2023-04-21T07:58:55;89316.75;;;4.80;100.00
46782;BME280;32541;46.298;11.506;2023-04-21T08:01:20;89309.06;;;4.94;100.00
46782;BME280;32541;46.298;11.506;2023-04-21T08:03:47;89315.94;;;5.10;100.00
46782;BME280;32541;46.298;11.506;2023-04-21T08:06:13;89311.00;;;5.16;100.00
46782;BME280;32541;46.298;11.506;2023-04-21T08:08:38;89301.31;;;5.23;100.00
46782;BME280;32541;46.298;11.506;2023-04-21T08:11:04;89297.72;;;5.52;100.00
46782;BME280;32541;46.298;11.506;2023-04-21T08:13:30;89292.06;;;5.83;100.00
46782;BME280;32541;46.298;11.506;2023-04-21T08:15:56;89288.88;;;6.01;100.00
46782;BME280;32541;46.298;11.506;2023-04-21T08:18:21;89296.38;;;6.18;100.00
46782;BME280;32541;46.298;11.506;2023-04-21T08:20:47;89302.78;;;6.38;100.00
46782;BME280;32541;46.298;11.506;2023-04-21T08:23:13;89312.31;;;6.04;100.00
46782;BME280;32541;46.298;11.506;2023-04-21T08:25:39;89308.03;;;5.94;100.00
46782;BME280;32541;46.298;11.506;2023-04-21T08:28:04;89310.91;;;6.21;100.00
46782;BME280;32541;46.298;11.506;2023-04-21T08:30:30;89315.56;;;6.35;100.00
46782;BME280;32541;46.298;11.506;2023-04-21T08:32:55;89307.41;;;6.69;100.00
46782;BME280;32541;46.298;11.506;2023-04-21T08:35:20;89309.09;;;6.82;100.00
46782;BME280;32541;46.298;11.506;2023-04-21T08:37:46;89310.94;;;6.97;100.00
46782;BME280;32541;46.298;11.506;2023-04-21T08:40:12;89311.41;;;7.20;100.00
46782;BME280;32541;46.298;11.506;2023-04-21T08:42:38;89313.19;;;7.25;100.00
46782;BME280;32541;46.298;11.506;2023-04-21T08:45:04;89316.47;;;7.41;100.00
46782;BME280;32541;46.298;11.506;2023-04-21T08:47:31;89309.09;;;7.60;100.00
46782;BME280;32541;46.298;11.506;2023-04-21T08:49:57;89317.63;;;7.64;100.00
46782;BME280;32541;46.298;11.506;2023-04-21T08:52:23;89306.41;;;7.70;100.00
46782;BME280;32541;46.298;11.506;2023-04-21T08:54:49;89311.81;;;7.77;100.00
46782;BME280;32541;46.298;11.506;2023-04-21T08:57:17;89310.91;;;8.02;100.00
46782;BME280;32541;46.298;11.506;2023-04-21T08:59:43;89313.47;;;8.26;97.64
46782;BME280;32541;46.298;11.506;2023-04-21T09:02:11;89316.63;;;8.23;95.42
46782;BME280;32541;46.298;11.506;2023-04-21T09:04:38;89311.50;;;8.36;97.03
46782;BME280;32541;46.298;11.506;2023-04-21T09:07:04;89311.41;;;8.54;96.98
46782;BME280;32541;46.298;11.506;2023-04-21T09:09:30;89320.75;;;8.14;93.64
46782;BME280;32541;46.298;11.506;2023-04-21T09:11:56;89324.50;;;7.82;96.10
46782;BME280;32541;46.298;11.506;2023-04-21T09:14:30;89318.91;;;7.63;92.93
46782;BME280;32541;46.298;11.506;2023-04-21T09:17:01;89319.22;;;7.67;91.26
46782;BME280;32541;46.298;11.506;2023-04-21T09:19:32;89314.47;;;7.68;94.93
46782;BME280;32541;46.298;11.506;2023-04-21T09:21:59;89316.59;;;7.43;94.85
46782;BME280;32541;46.298;11.506;2023-04-21T09:24:25;89321.69;;;7.46;96.30
46782;BME280;32541;46.298;11.506;2023-04-21T09:26:51;89319.50;;;7.89;95.60
46782;BME280;32541;46.298;11.506;2023-04-21T09:29:17;89322.03;;;8.04;94.20
46782;BME280;32541;46.298;11.506;2023-04-21T09:31:43;89322.53;;;8.19;93.21
46782;BME280;32541;46.298;11.506;2023-04-21T09:36:46;89322.81;;;8.23;93.43
46782;BME280;32541;46.298;11.506;2023-04-21T09:39:12;89321.16;;;8.37;92.01
46782;BME280;32541;46.298;11.506;2023-04-21T09:41:38;89320.16;;;8.33;91.08
46782;BME280;32541;46.298;11.506;2023-04-21T09:44:03;89326.41;;;8.43;87.68
46782;BME280;32541;46.298;11.506;2023-04-21T09:46:32;89325.09;;;8.44;83.90
46782;BME280;32541;46.298;11.506;2023-04-21T09:49:02;89335.53;;;8.02;88.18
46782;BME280;32541;46.298;11.506;2023-04-21T09:51:29;89332.03;;;8.18;89.59
46782;BME280;32541;46.298;11.506;2023-04-21T09:53:58;89324.53;;;8.19;88.99
46782;BME280;32541;46.298;11.506;2023-04-21T09:56:24;89326.78;;;8.30;89.12
46782;BME280;32541;46.298;11.506;2023-04-21T09:58:57;89340.94;;;8.36;87.48
46782;BME280;32541;46.298;11.506;2023-04-21T10:01:25;89324.63;;;8.38;87.81
46782;BME280;32541;46.298;11.506;2023-04-21T10:03:51;89335.66;;;8.21;89.21
46782;BME280;32541;46.298;11.506;2023-04-21T10:06:18;89328.81;;;8.39;88.44
46782;BME280;32541;46.298;11.506;2023-04-21T10:08:44;89331.16;;;8.16;89.53
46782;BME280;32541;46.298;11.506;2023-04-21T10:11:11;89331.38;;;8.27;90.10
46782;BME280;32541;46.298;11.506;2023-04-21T10:13:37;89332.47;;;8.51;87.29
46782;BME280;32541;46.298;11.506;2023-04-21T10:16:07;89326.63;;;8.74;86.75
46782;BME280;32541;46.298;11.506;2023-04-21T10:18:37;89336.56;;;8.79;86.65
46782;BME280;32541;46.298;11.506;2023-04-21T10:21:08;89330.50;;;8.71;87.09
46782;BME280;32541;46.298;11.506;2023-04-21T10:34:14;89315.97;;;8.87;85.47
46782;BME280;32541;46.298;11.506;2023-04-21T10:39:27;89314.41;;;8.12;92.73
46782;BME280;32541;46.298;11.506;2023-04-21T10:47:41;89302.03;;;8.47;92.26
46782;BME280;32541;46.298;11.506;2023-04-21T10:50:12;89313.16;;;8.49;90.16
46782;BME280;32541;46.298;11.506;2023-04-21T10:52:37;89315.19;;;8.68;87.79
46782;BME280;32541;46.298;11.506;2023-04-21T10:55:05;89306.34;;;8.50;88.45
46782;BME280;32541;46.298;11.506;2023-04-21T10:57:32;89308.88;;;8.29;88.46
46782;BME280;32541;46.298;11.506;2023-04-21T10:59:58;89301.06;;;8.62;85.79
46782;BME280;32541;46.298;11.506;2023-04-21T11:02:25;89295.34;;;8.96;86.44
46782;BME280;32541;46.298;11.506;2023-04-21T11:04:52;89300.41;;;9.00;84.07
46782;BME280;32541;46.298;11.506;2023-04-21T11:07:19;89290.59;;;8.97;83.39
46782;BME280;32541;46.298;11.506;2023-04-21T11:09:46;89284.22;;;9.04;84.20
46782;BME280;32541;46.298;11.506;2023-04-21T11:12:14;89291.16;;;9.33;83.09
46782;BME280;32541;46.298;11.506;2023-04-21T11:14:42;89283.38;;;9.39;83.70
46782;BME280;32541;46.298;11.506;2023-04-21T11:17:15;89283.94;;;9.19;84.66
46782;BME280;32541;46.298;11.506;2023-04-21T11:19:44;89289.41;;;9.57;82.93
46782;BME280;32541;46.298;11.506;2023-04-21T11:22:10;89283.38;;;10.09;85.34
46782;BME280;32541;46.298;11.506;2023-04-21T11:24:35;89267.72;;;10.61;82.84
46782;BME280;32541;46.298;11.506;2023-04-21T11:27:01;89263.53;;;11.24;83.26
46782;BME280;32541;46.298;11.506;2023-04-21T11:29:26;89267.97;;;11.50;80.51
46782;BME280;32541;46.298;11.506;2023-04-21T11:31:54;89257.81;;;11.85;79.26
46782;BME280;32541;46.298;11.506;2023-04-21T11:34:20;89249.97;;;12.14;69.90
46782;BME280;32541;46.298;11.506;2023-04-21T11:36:47;89255.91;;;11.01;66.37
46782;BME280;32541;46.298;11.506;2023-04-21T11:39:15;89248.38;;;11.01;65.78
46782;BME280;32541;46.298;11.506;2023-04-21T11:41:45;89248.59;;;11.27;65.64
46782;BME280;32541;46.298;11.506;2023-04-21T11:44:12;89240.31;;;11.48;65.86
46782;BME280;32541;46.298;11.506;2023-04-21T11:46:44;89252.41;;;11.00;63.68
46782;BME280;32541;46.298;11.506;2023-04-21T11:49:14;89258.75;;;10.82;63.31
46782;BME280;32541;46.298;11.506;2023-04-21T11:51:42;89255.66;;;10.45;62.30
46782;BME280;32541;46.298;11.506;2023-04-21T11:54:10;89261.84;;;10.45;65.04
46782;BME280;32541;46.298;11.506;2023-04-21T11:56:37;89263.13;;;10.23;68.60
46782;BME280;32541;46.298;11.506;2023-04-21T11:59:09;89258.19;;;10.22;67.83
46782;BME280;32541;46.298;11.506;2023-04-21T12:01:46;89259.34;;;10.19;66.10
46782;BME280;32541;46.298;11.506;2023-04-21T12:04:15;89258.78;;;10.11;64.89
46782;BME280;32541;46.298;11.506;2023-04-21T12:06:41;89259.22;;;10.17;62.41
46782;BME280;32541;46.298;11.506;2023-04-21T12:09:07;89257.78;;;10.16;66.83
46782;BME280;32541;46.298;11.506;2023-04-21T12:11:33;89272.66;;;10.13;63.22
46782;BME280;32541;46.298;11.506;2023-04-21T12:13:59;89255.56;;;10.33;64.44
46782;BME280;32541;46.298;11.506;2023-04-21T12:16:26;89266.91;;;10.09;65.97
46782;BME280;32541;46.298;11.506;2023-04-21T12:18:52;89262.84;;;10.10;65.37
46782;BME280;32541;46.298;11.506;2023-04-21T12:21:18;89273.41;;;10.13;65.17
46782;BME280;32541;46.298;11.506;2023-04-21T12:23:43;89266.31;;;10.20;64.40
46782;BME280;32541;46.298;11.506;2023-04-21T12:26:10;89269.38;;;10.04;63.84
46782;BME280;32541;46.298;11.506;2023-04-21T12:28:37;89265.75;;;10.12;63.80
46782;BME280;32541;46.298;11.506;2023-04-21T12:31:02;89266.38;;;10.41;63.98
46782;BME280;32541;46.298;11.506;2023-04-21T12:33:28;89268.25;;;10.90;67.21
46782;BME280;32541;46.298;11.506;2023-04-21T12:35:53;89260.84;;;11.14;62.54
46782;BME280;32541;46.298;11.506;2023-04-21T12:38:18;89274.13;;;11.60;61.90
46782;BME280;32541;46.298;11.506;2023-04-21T12:40:44;89264.28;;;11.78;61.31
46782;BME280;32541;46.298;11.506;2023-04-21T12:43:09;89268.84;;;11.85;57.21
46782;BME280;32541;46.298;11.506;2023-04-21T12:45:35;89265.84;;;11.81;59.60
46782;BME280;32541;46.298;11.506;2023-04-21T12:48:00;89260.59;;;11.64;61.26
46782;BME280;32541;46.298;11.506;2023-04-21T12:50:27;89252.53;;;11.78;58.46
46782;BME280;32541;46.298;11.506;2023-04-21T12:52:53;89256.19;;;12.15;61.01
46782;BME280;32541;46.298;11.506;2023-04-21T12:55:20;89261.91;;;11.30;57.94
46782;BME280;32541;46.298;11.506;2023-04-21T12:57:45;89256.34;;;10.97;61.11
46782;BME280;32541;46.298;11.506;2023-04-21T13:00:12;89250.19;;;11.08;62.53
46782;BME280;32541;46.298;11.506;2023-04-21T13:02:39;89269.25;;;10.74;64.65
46782;BME280;32541;46.298;11.506;2023-04-21T13:05:05;89265.09;;;10.32;66.32
46782;BME280;32541;46.298;11.506;2023-04-21T13:07:32;89250.97;;;10.57;66.86
46782;BME280;32541;46.298;11.506;2023-04-21T13:09:58;89241.28;;;10.77;67.37
46782;BME280;32541;46.298;11.506;2023-04-21T13:12:23;89238.53;;;10.98;66.86